createdAt,value
2019-04-22T00:01:55.298Z,95025.77
2019-04-22T00:04:36.965Z,95015.17
2019-04-22T00:07:17.441Z,95018.77
2019-04-22T00:09:53.119Z,95017.79
2019-04-22T00:12:32.728Z,95012.88
2019-04-22T00:14:55.561Z,95005.52
2019-04-22T00:17:38.844Z,95004.52
2019-04-22T00:20:04.380Z,95007.92
2019-04-22T00:25:15.391Z,95000.46
2019-04-22T00:30:18.194Z,94994.05
2019-04-22T00:33:02.863Z,94996.58
2019-04-22T00:35:35.366Z,94988.61
2019-04-22T00:38:10.887Z,94992.57
2019-04-22T00:40:44.595Z,94984.39
2019-04-22T00:43:15.429Z,94985.16
2019-04-22T00:48:30.846Z,94979.17
2019-04-22T00:51:06.347Z,94980.02
2019-04-22T00:53:29.754Z,94979.55
2019-04-22T00:58:41.211Z,94973.48
2019-04-22T01:06:21.512Z,94969.12
2019-04-22T01:09:00.235Z,94971.06
2019-04-22T01:11:29.891Z,94966.84
2019-04-22T01:14:01.392Z,94968.16
2019-04-22T01:19:05.281Z,94968.28
2019-04-22T01:24:09.173Z,94960.16
2019-04-22T01:26:40.259Z,94956.73
2019-04-22T01:29:12.684Z,94949.42
2019-04-22T01:31:34.605Z,94947.91
2019-04-22T01:34:16.369Z,94944.33
2019-04-22T01:36:57.805Z,94939.65
2019-04-22T01:39:37.513Z,94934.03
2019-04-22T01:42:05.463Z,94932.13
2019-04-22T01:44:40.501Z,94929.30
2019-04-22T01:47:19.714Z,94924.77
2019-04-22T01:49:46.180Z,94927.64
2019-04-22T01:54:54.647Z,94913.92
2019-04-22T01:57:24.194Z,94915.18
2019-04-22T01:59:51.538Z,94914.19
2019-04-22T02:02:40.102Z,94915.80
2019-04-22T02:05:14.005Z,94909.87
2019-04-22T02:07:34.058Z,94912.25
2019-04-22T02:10:11.078Z,94915.17
2019-04-22T02:12:45.920Z,94914.48
2019-04-22T02:15:21.384Z,94909.72
2019-04-22T02:17:56.861Z,94907.67
2019-04-22T02:20:27.013Z,94905.47
2019-04-22T02:23:45.142Z,94900.61
2019-04-22T02:26:07.589Z,94899.38
2019-04-22T02:28:42.616Z,94901.05
2019-04-22T02:31:25.808Z,94892.95
2019-04-22T02:46:49.615Z,94868.03
2019-04-22T02:51:32.774Z,94864.03
2019-04-22T02:54:29.891Z,94859.22
2019-04-22T02:59:14.956Z,94851.77
2019-04-22T03:01:47.027Z,94852.62
2019-04-22T03:04:22.631Z,94847.66
2019-04-22T03:07:05.335Z,94839.67
2019-04-22T03:12:11.462Z,94836.95
2019-04-22T03:14:34.846Z,94840.92
2019-04-22T03:17:11.385Z,94842.98
2019-04-22T03:19:57.183Z,94839.32
2019-04-22T03:22:16.593Z,94837.39
2019-04-22T03:27:17.328Z,94834.92
2019-04-22T03:30:41.997Z,94831.91
2019-04-22T03:37:55.946Z,94823.95
2019-04-22T03:40:33.913Z,94831.36
2019-04-22T03:45:30.239Z,94827.84
2019-04-22T03:50:38.785Z,94825.84
2019-04-22T03:53:09.736Z,94821.36
2019-04-22T03:55:41.279Z,94821.77
2019-04-22T03:58:26.276Z,94821.69
2019-04-22T04:03:23.395Z,94817.25
2019-04-22T04:08:26.323Z,94812.61
2019-04-22T04:10:52.717Z,94813.50
2019-04-22T04:15:55.751Z,94812.09
2019-04-22T04:18:46.758Z,94814.81
2019-04-22T04:21:22.208Z,94810.31
2019-04-22T04:23:50.318Z,94808.29
2019-04-22T04:26:23.892Z,94801.70
2019-04-22T04:29:21.456Z,94799.43
2019-04-22T04:31:25.250Z,94806.25
2019-04-22T04:36:28.369Z,94799.81
2019-04-22T04:41:34.331Z,94799.11
2019-04-22T04:46:45.306Z,94801.13
2019-04-22T04:49:24.014Z,94806.27
2019-04-22T04:51:47.032Z,94802.20
2019-04-22T04:54:21.474Z,94805.19
2019-04-22T04:56:56.402Z,94803.58
2019-04-22T04:59:30.409Z,94804.25
2019-04-22T05:01:52.792Z,94804.61
2019-04-22T05:09:29.743Z,94808.63
2019-04-22T05:12:25.455Z,94805.19
2019-04-22T05:14:32.457Z,94794.45
2019-04-22T05:19:37.734Z,94800.74
2019-04-22T05:22:12.061Z,94804.75
2019-04-22T05:24:42.649Z,94805.75
2019-04-22T05:27:24.694Z,94802.27
2019-04-22T05:30:05.749Z,94799.04
2019-04-22T05:32:20.482Z,94800.52
2019-04-22T05:34:55.484Z,94790.84
2019-04-22T05:37:29.995Z,94785.36
2019-04-22T05:39:56.466Z,94786.83
2019-04-22T05:42:23.190Z,94787.96
2019-04-22T05:45:05.543Z,94783.50
2019-04-22T05:47:32.009Z,94786.27
2019-04-22T05:50:07.550Z,94784.81
2019-04-22T05:52:46.911Z,94784.53
2019-04-22T05:55:28.103Z,94791.78
2019-04-22T05:57:51.155Z,94780.91
2019-04-22T06:05:38.711Z,94774.14
2019-04-22T06:08:04.125Z,94774.84
2019-04-22T06:10:45.639Z,94778.12
2019-04-22T06:13:09.954Z,94775.77
2019-04-22T06:15:44.148Z,94774.58
2019-04-22T06:18:22.737Z,94772.52
2019-04-22T06:20:59.397Z,94770.61
2019-04-22T06:23:36.339Z,94765.53
2019-04-22T06:26:10.777Z,94762.45
2019-04-22T06:31:12.520Z,94761.47
2019-04-22T06:33:43.510Z,94764.56
2019-04-22T06:36:16.220Z,94764.05
2019-04-22T06:39:05.245Z,94751.75
2019-04-22T06:41:24.791Z,94752.97
2019-04-22T06:44:02.516Z,94749.83
2019-04-22T06:46:27.491Z,94752.30
2019-04-22T06:48:56.355Z,94748.48
2019-04-22T06:51:33.090Z,94747.01
2019-04-22T06:54:02.990Z,94742.19
2019-04-22T06:56:35.300Z,94739.78
2019-04-22T06:59:10.102Z,94741.77
2019-04-22T07:01:55.066Z,94733.65
2019-04-22T07:04:14.480Z,94729.14
2019-04-22T07:06:48.079Z,94727.07
2019-04-22T07:09:33.747Z,94719.03
2019-04-22T07:11:52.848Z,94719.86
2019-04-22T07:14:18.102Z,94695.11
2019-04-22T07:16:56.179Z,94677.50
2019-04-22T07:19:36.142Z,94668.69
2019-04-22T07:22:07.691Z,94678.30
2019-04-22T07:27:10.528Z,94680.86
2019-04-22T07:32:13.122Z,94676.44
2019-04-22T07:34:49.265Z,94673.72
2019-04-22T07:37:28.194Z,94668.87
2019-04-22T07:39:50.338Z,94660.45
2019-04-22T07:42:24.795Z,94657.75
2019-04-22T07:44:54.889Z,94659.45
2019-04-22T07:47:36.032Z,94659.05
2019-04-22T07:50:05.478Z,94658.17
2019-04-22T07:52:34.453Z,94657.52
2019-04-22T07:55:07.535Z,94655.54
2019-04-22T07:57:48.279Z,94651.33
2019-04-22T08:00:16.005Z,94650.23
2019-04-22T08:02:51.595Z,94649.98
2019-04-22T08:05:24.829Z,94648.78
2019-04-22T08:07:59.435Z,94643.43
2019-04-22T08:10:29.965Z,94637.75
2019-04-22T08:13:01.752Z,94630.45
2019-04-22T08:15:33.134Z,94630.95
2019-04-22T08:18:23.437Z,94629.38
2019-04-22T08:20:42.765Z,94627.31
2019-04-22T08:28:26.256Z,94609.79
2019-04-22T08:30:55.301Z,94608.44
2019-04-22T08:33:29.096Z,94607.69
2019-04-22T08:36:10.520Z,94599.97
2019-04-22T08:38:35.384Z,94601.84
2019-04-22T08:43:57.455Z,94597.59
2019-04-22T08:49:04.511Z,94596.80
2019-04-22T08:51:30.866Z,94601.43
2019-04-22T08:54:10.149Z,94598.19
2019-04-22T09:01:39.197Z,94589.33
2019-04-22T09:04:12.073Z,94585.47
2019-04-22T09:07:07.738Z,94580.64
2019-04-22T09:09:21.296Z,94575.02
2019-04-22T09:11:57.936Z,94570.33
2019-04-22T09:14:34.750Z,94569.48
2019-04-22T09:17:05.694Z,94564.76
2019-04-22T09:19:30.186Z,94557.50
2019-04-22T09:22:08.359Z,94562.03
2019-04-22T09:24:35.634Z,94551.30
2019-04-22T09:27:22.645Z,94554.91
2019-04-22T09:29:42.958Z,94553.66
2019-04-22T09:32:20.205Z,94544.81
2019-04-22T09:34:47.653Z,94546.47
2019-04-22T09:37:31.815Z,94533.88
2019-04-22T09:40:00.910Z,94536.59
2019-04-22T09:42:37.257Z,94533.17
2019-04-22T09:45:02.428Z,94529.63
2019-04-22T09:47:33.831Z,94518.14
2019-04-22T09:50:09.806Z,94522.25
2019-04-22T09:52:43.747Z,94521.92
2019-04-22T09:55:16.695Z,94520.11
2019-04-22T09:57:44.944Z,94508.73
2019-04-22T10:02:55.415Z,94502.76
2019-04-22T10:05:29.143Z,94495.14
2019-04-22T10:07:59.460Z,94497.67
2019-04-22T10:10:27.057Z,94498.28
2019-04-22T10:13:10.776Z,94490.91
2019-04-22T10:15:39.242Z,94484.94
2019-04-22T10:18:10.937Z,94482.37
2019-04-22T10:20:45.889Z,94477.20
2019-04-22T10:23:20.316Z,94475.73
2019-04-22T10:25:54.170Z,94474.05
2019-04-22T10:28:27.277Z,94469.42
2019-04-22T10:31:11.462Z,94460.34
2019-04-22T10:33:21.955Z,94458.27
2019-04-22T10:35:34.534Z,94459.33
2019-04-22T10:38:06.117Z,94448.13
2019-04-22T10:40:38.716Z,94443.68
2019-04-22T10:43:11.501Z,94448.77
2019-04-22T10:45:43.885Z,94442.12
2019-04-22T10:48:16.458Z,94430.06
2019-04-22T10:50:48.961Z,94429.51
2019-04-22T10:53:21.550Z,94428.51
2019-04-22T10:55:54.241Z,94420.17
2019-04-22T10:58:26.766Z,94416.03
2019-04-22T11:00:58.272Z,94412.45
2019-04-22T11:03:31.156Z,94408.13
2019-04-22T11:06:03.324Z,94412.32
2019-04-22T11:08:44.518Z,94404.55
2019-04-22T11:11:21.507Z,94399.70
2019-04-22T11:13:40.141Z,94393.54
2019-04-22T11:16:11.742Z,94386.55
2019-04-22T11:18:43.433Z,94389.02
2019-04-22T11:21:15.753Z,94378.34
2019-04-22T11:23:47.096Z,94375.82
2019-04-22T11:26:19.708Z,94372.41
2019-04-22T11:28:51.767Z,94365.54
2019-04-22T11:31:24.117Z,94359.83
2019-04-22T11:33:56.680Z,94365.78
2019-04-22T11:36:30.615Z,94360.64
2019-04-22T11:39:03.919Z,94357.55
2019-04-22T11:41:36.006Z,94349.27
2019-04-22T11:44:09.552Z,94343.63
2019-04-22T11:46:41.114Z,94337.31
2019-04-22T11:49:12.416Z,94333.41
2019-04-22T11:51:43.499Z,94333.88
2019-04-22T11:54:14.770Z,94328.77
2019-04-22T11:56:47.365Z,94331.49
2019-04-22T11:59:18.740Z,94330.48
2019-04-22T12:01:51.018Z,94334.62
2019-04-22T12:04:22.137Z,94329.98
2019-04-22T12:06:53.979Z,94333.29
2019-04-22T12:09:25.690Z,94326.82
2019-04-22T12:11:58.072Z,94335.05
2019-04-22T12:14:30.042Z,94318.32
2019-04-22T12:17:01.656Z,94321.16
2019-04-22T12:19:35.236Z,94310.98
2019-04-22T12:22:07.147Z,94302.15
2019-04-22T12:24:40.455Z,94312.09
2019-04-22T12:27:13.939Z,94311.22
2019-04-22T12:29:46.959Z,94300.63
2019-04-22T12:32:18.161Z,94298.25
2019-04-22T12:34:49.364Z,94294.31
2019-04-22T12:37:24.828Z,94284.18
2019-04-22T12:39:56.386Z,94280.75
2019-04-22T12:42:27.083Z,94280.16
2019-04-22T12:44:58.400Z,94273.44
2019-04-22T12:47:30.516Z,94263.91
2019-04-22T12:50:08.809Z,94265.23
2019-04-22T12:52:43.718Z,94250.66
2019-04-22T12:55:09.973Z,94240.44
2019-04-22T12:57:41.233Z,94247.64
2019-04-22T13:00:17.556Z,94235.58
2019-04-22T13:02:49.188Z,94232.11
2019-04-22T13:05:20.878Z,94220.04
2019-04-22T13:07:51.948Z,94220.11
2019-04-22T13:10:25.774Z,94213.98
2019-04-22T13:12:58.613Z,94203.00
2019-04-22T13:15:30.847Z,94200.41
2019-04-22T13:18:11.820Z,94191.06
2019-04-22T13:20:34.708Z,94199.08
2019-04-22T13:23:07.569Z,94183.14
2019-04-22T13:25:38.967Z,94192.32
2019-04-22T13:28:11.335Z,94183.70
2019-04-22T13:30:44.303Z,94183.58
2019-04-22T13:33:16.812Z,94197.64
2019-04-22T13:35:48.123Z,94183.14
2019-04-22T13:38:19.343Z,94184.47
2019-04-22T13:41:05.376Z,94181.98
2019-04-22T13:43:23.093Z,94171.36
2019-04-22T13:45:54.200Z,94172.27
2019-04-22T13:48:47.061Z,94173.62
2019-04-22T13:54:01.903Z,94171.13
2019-04-22T13:56:24.898Z,94179.66
2019-04-22T13:58:48.561Z,94159.56
2019-04-22T14:01:14.537Z,94168.63
2019-04-22T14:04:08.514Z,94161.83
2019-04-22T14:06:40.728Z,94161.67
2019-04-22T14:09:13.547Z,94151.42
2019-04-22T14:11:50.623Z,94157.08
2019-04-22T14:14:17.751Z,94148.97
2019-04-22T14:16:49.153Z,94153.41
2019-04-22T14:19:20.402Z,94148.86
2019-04-22T14:21:51.618Z,94149.14
2019-04-22T14:24:23.756Z,94138.28
2019-04-22T14:27:10.673Z,94136.34
2019-04-22T14:29:27.716Z,94137.53
2019-04-22T14:32:05.459Z,94134.29
2019-04-22T14:34:32.108Z,94137.89
2019-04-22T14:37:03.670Z,94122.89
2019-04-22T14:39:35.767Z,94129.77
2019-04-22T14:42:28.329Z,94116.58
2019-04-22T14:47:45.540Z,94111.30
2019-04-22T14:50:06.297Z,94111.98
2019-04-22T14:52:44.515Z,94103.88
2019-04-22T14:55:01.950Z,94100.55
2019-04-22T14:57:26.640Z,94099.16
2019-04-22T14:59:57.860Z,94101.44
2019-04-22T15:02:29.752Z,94091.39
2019-04-22T15:05:01.860Z,94086.34
2019-04-22T15:07:33.082Z,94089.34
2019-04-22T15:10:06.100Z,94082.85
2019-04-22T15:12:44.207Z,94082.09
2019-04-22T15:15:21.672Z,94072.19
2019-04-22T15:18:01.201Z,94067.70
2019-04-22T15:20:47.466Z,94079.44
2019-04-22T15:23:20.366Z,94073.69
2019-04-22T15:25:52.824Z,94076.63
2019-04-22T15:28:24.015Z,94062.56
2019-04-22T15:30:55.613Z,94064.09
2019-04-22T15:33:27.747Z,94054.44
2019-04-22T15:35:59.128Z,94062.36
2019-04-22T15:38:30.358Z,94056.69
2019-04-22T15:41:02.744Z,94059.12
2019-04-22T15:43:36.665Z,94057.84
2019-04-22T15:46:07.666Z,94057.02
2019-04-22T15:48:39.916Z,94051.90
2019-04-22T15:51:11.095Z,94051.66
2019-04-22T15:53:43.389Z,94043.41
2019-04-22T15:56:14.746Z,94043.18
2019-04-22T15:58:46.152Z,94041.34
2019-04-22T16:01:23.059Z,94042.09
2019-04-22T16:03:50.289Z,94039.78
2019-04-22T16:06:22.041Z,94044.03
2019-04-22T16:08:54.072Z,94043.27
2019-04-22T16:11:25.143Z,94044.05
2019-04-22T16:13:56.725Z,94043.55
2019-04-22T16:16:28.378Z,94043.36
2019-04-22T16:19:00.634Z,94039.72
2019-04-22T16:21:40.430Z,94042.76
2019-04-22T16:24:34.057Z,94041.20
2019-04-22T16:27:14.179Z,94041.61
2019-04-22T16:29:45.527Z,94043.65
2019-04-22T16:32:16.658Z,94048.53
2019-04-22T16:34:48.073Z,94047.82
2019-04-22T16:37:19.211Z,94050.23
2019-04-22T16:39:52.232Z,94045.63
2019-04-22T16:42:33.360Z,94053.12
2019-04-22T16:44:55.768Z,94042.41
2019-04-22T16:47:27.901Z,94044.11
2019-04-22T16:49:59.665Z,94043.00
2019-04-22T16:52:32.183Z,94045.08
2019-04-22T16:55:03.689Z,94054.22
2019-04-22T16:57:37.708Z,94049.23
2019-04-22T17:00:11.165Z,94051.34
2019-04-22T17:02:52.569Z,94053.50
2019-04-22T17:05:45.740Z,94052.45
2019-04-22T17:08:18.439Z,94047.78
2019-04-22T17:10:49.681Z,94047.94
2019-04-22T17:13:24.943Z,94050.23
2019-04-22T17:15:54.242Z,94049.36
2019-04-22T17:18:27.348Z,94042.75
2019-04-22T17:20:58.706Z,94045.34
2019-04-22T17:23:29.763Z,94048.63
2019-04-22T17:26:01.133Z,94040.58
2019-04-22T17:28:33.408Z,94039.30
2019-04-22T17:31:06.536Z,94041.99
2019-04-22T17:33:39.122Z,94047.33
2019-04-22T17:36:12.045Z,94036.84
2019-04-22T17:38:54.339Z,94044.00
2019-04-22T17:41:28.556Z,94040.08
2019-04-22T17:44:16.443Z,94040.89
2019-04-22T17:46:45.888Z,94036.47
2019-04-22T17:49:37.348Z,94039.44
2019-04-22T17:52:21.100Z,94037.34
2019-04-22T17:54:50.155Z,94029.94
2019-04-22T17:57:24.059Z,94035.23
2019-04-22T17:59:56.738Z,94031.51
2019-04-22T18:02:29.548Z,94034.52
2019-04-22T18:04:51.752Z,94035.86
2019-04-22T18:07:38.303Z,94039.57
2019-04-22T18:10:27.493Z,94028.73
2019-04-22T18:12:53.522Z,94033.42
2019-04-22T18:15:35.234Z,94028.80
2019-04-22T18:17:55.603Z,94033.20
2019-04-22T18:20:20.935Z,94033.45
2019-04-22T18:22:46.273Z,94028.08
2019-04-22T18:25:20.336Z,94023.33
2019-04-22T18:28:07.419Z,94029.53
2019-04-22T18:30:25.455Z,94030.17
2019-04-22T18:33:07.543Z,94035.70
2019-04-22T18:35:38.009Z,94034.77
2019-04-22T18:38:26.623Z,94032.41
2019-04-22T18:40:48.625Z,94037.31
2019-04-22T18:43:26.206Z,94041.44
2019-04-22T18:46:09.531Z,94044.20
2019-04-22T18:48:17.653Z,94040.53
2019-04-22T18:51:13.386Z,94036.45
2019-04-22T18:54:05.131Z,94040.25
2019-04-22T18:56:58.424Z,94038.49
2019-04-22T18:59:18.476Z,94038.50
2019-04-22T19:01:43.921Z,94035.70
2019-04-22T19:04:22.053Z,94028.39
2019-04-22T19:07:14.922Z,94038.64
2019-04-22T19:09:49.915Z,94039.14
2019-04-22T19:12:33.843Z,94037.62
2019-04-22T19:15:01.584Z,94035.42
2019-04-22T19:20:02.997Z,94039.06
2019-04-22T19:22:30.939Z,94042.30
2019-04-22T19:24:55.010Z,94056.05
2019-04-22T19:27:31.380Z,94046.07
2019-04-22T19:30:14.229Z,94047.73
2019-04-22T19:32:41.973Z,94042.18
2019-04-22T19:35:09.811Z,94045.95
2019-04-22T19:37:37.413Z,94041.80
2019-04-22T19:40:46.215Z,94041.48
2019-04-22T19:42:56.226Z,94033.34
2019-04-22T19:45:20.244Z,94037.64
2019-04-22T19:48:03.409Z,94028.61
2019-04-22T19:50:31.226Z,94034.91
2019-04-22T19:53:07.577Z,94034.76
2019-04-22T19:55:34.956Z,94032.30
2019-04-22T19:58:12.636Z,94023.20
2019-04-22T20:01:14.959Z,94029.70
2019-04-22T20:04:09.136Z,94018.18
2019-04-22T20:06:35.344Z,94022.03
2019-04-22T20:09:13.558Z,94019.72
2019-04-22T20:11:38.548Z,94014.84
2019-04-22T20:14:17.018Z,94014.58
2019-04-22T20:16:42.292Z,94011.48
2019-04-22T20:19:26.719Z,94010.73
2019-04-22T20:21:51.979Z,94003.37
2019-04-22T20:24:12.975Z,94011.81
2019-04-22T20:27:10.826Z,93999.84
2019-04-22T20:29:38.386Z,94002.28
2019-04-22T20:32:05.990Z,93999.41
2019-04-22T20:34:40.908Z,93995.81
2019-04-22T20:37:17.989Z,93994.13
2019-04-22T20:39:50.234Z,93993.65
2019-04-22T20:42:29.737Z,93993.61
2019-04-22T20:44:53.327Z,93988.80
2019-04-22T20:47:17.702Z,93983.86
2019-04-22T20:49:55.423Z,93988.73
2019-04-22T20:52:34.516Z,93978.30
2019-04-22T20:54:57.289Z,93986.76
2019-04-22T20:57:36.680Z,93986.05
2019-04-22T21:00:03.747Z,93980.58
2019-04-22T21:02:33.811Z,93978.08
2019-04-22T21:04:58.833Z,93970.06
2019-04-22T21:07:38.501Z,93974.77
2019-04-22T21:10:14.596Z,93978.42
2019-04-22T21:12:39.753Z,93980.51
2019-04-22T21:15:29.590Z,93973.20
2019-04-22T21:17:57.951Z,93963.25
2019-04-22T21:20:41.144Z,93963.22
2019-04-22T21:23:00.683Z,93966.75
2019-04-22T21:25:25.900Z,93967.08
2019-04-22T21:28:58.054Z,93956.94
2019-04-22T21:31:38.607Z,93961.41
2019-04-22T21:34:05.274Z,93946.59
2019-04-22T21:36:45.928Z,93950.86
2019-04-22T21:39:12.093Z,93943.76
2019-04-22T21:41:47.423Z,93944.16
2019-04-22T21:44:23.682Z,93947.50
2019-04-22T21:46:57.312Z,93948.15
2019-04-22T21:49:25.030Z,93941.34
2019-04-22T21:52:01.313Z,93936.00
2019-04-22T21:54:34.017Z,93927.17
2019-04-22T21:59:46.225Z,93923.15
2019-04-22T22:02:25.125Z,93916.61
2019-04-22T22:04:47.414Z,93919.70
2019-04-22T22:07:13.869Z,93915.15
2019-04-22T22:10:00.853Z,93913.21
2019-04-22T22:12:36.108Z,93911.63
2019-04-22T22:15:09.791Z,93909.00
2019-04-22T22:17:35.468Z,93908.88
2019-04-22T22:20:06.200Z,93900.23
2019-04-22T22:25:18.274Z,93903.48
2019-04-22T22:27:44.767Z,93897.41
2019-04-22T22:30:41.567Z,93900.60
2019-04-22T22:33:11.173Z,93898.59
2019-04-22T22:35:57.890Z,93890.72
2019-04-22T22:38:27.366Z,93892.80
2019-04-22T22:40:43.936Z,93889.55
2019-04-22T22:43:24.941Z,93882.77
2019-04-22T22:46:01.075Z,93874.31
2019-04-22T22:48:44.302Z,93871.29
2019-04-22T22:51:17.910Z,93876.12
2019-04-22T22:53:52.671Z,93873.41
2019-04-22T22:56:26.855Z,93872.78
2019-04-22T22:58:52.750Z,93868.15
2019-04-22T23:01:24.310Z,93867.37
2019-04-22T23:03:56.013Z,93869.42
2019-04-22T23:06:40.591Z,93866.17
2019-04-22T23:09:05.720Z,93863.52
2019-04-22T23:11:52.290Z,93865.06
2019-04-22T23:14:07.502Z,93859.82
2019-04-22T23:16:31.259Z,93855.66
2019-04-22T23:19:06.662Z,93851.44
2019-04-22T23:21:41.582Z,93849.45
2019-04-22T23:24:43.948Z,93842.17
2019-04-22T23:27:22.720Z,93837.38
2019-04-22T23:29:57.161Z,93839.14
2019-04-22T23:32:34.617Z,93834.35
2019-04-22T23:35:15.344Z,93833.09
2019-04-22T23:37:47.369Z,93825.30
2019-04-22T23:43:02.009Z,93819.72
2019-04-22T23:45:27.092Z,93820.13
2019-04-22T23:47:49.949Z,93816.50
2019-04-22T23:50:31.147Z,93806.11
2019-04-22T23:53:31.539Z,93807.22
2019-04-22T23:55:50.570Z,93799.95
2019-04-22T23:58:42.472Z,93802.53
